sensor_id;sensor_type;location;lat;lon;timestamp;pressure;altitude;pressure_sealevel;temperature;humidity
22582;BME280;47125;48.542;9.052;2023-03-20T00:08:02;96244.34;;;10.77;73.56
22582;BME280;47125;48.542;9.052;2023-03-20T00:18:18;96246.22;;;10.77;73.48
22582;BME280;47125;48.542;9.052;2023-03-20T00:28:39;96238.44;;;10.75;73.00
22582;BME280;47125;48.542;9.052;2023-03-20T00:38:44;96250.16;;;10.74;72.93
22582;BME280;47125;48.542;9.052;2023-03-20T00:48:47;96249.91;;;10.76;72.58
22582;BME280;47125;48.542;9.052;2023-03-20T00:58:53;96254.22;;;10.77;72.59
22582;BME280;47125;48.542;9.052;2023-03-20T01:08:56;96250.84;;;10.70;73.30
22582;BME280;47125;48.542;9.052;2023-03-20T01:19:00;96252.94;;;10.68;73.79
22582;BME280;47125;48.542;9.052;2023-03-20T01:29:09;96256.88;;;10.65;73.76
22582;BME280;47125;48.542;9.052;2023-03-20T01:39:19;96247.94;;;10.71;73.63
22582;BME280;47125;48.542;9.052;2023-03-20T02:10:06;96265.78;;;10.36;75.46
22582;BME280;47125;48.542;9.052;2023-03-20T02:30:46;96274.56;;;10.25;75.13
22582;BME280;47125;48.542;9.052;2023-03-20T02:40:59;96270.66;;;10.27;74.59
22582;BME280;47125;48.542;9.052;2023-03-20T03:01:27;96277.34;;;10.18;75.35
22582;BME280;47125;48.542;9.052;2023-03-20T03:11:34;96278.44;;;10.11;75.54
22582;BME280;47125;48.542;9.052;2023-03-20T03:21:39;96280.53;;;10.09;75.96
22582;BME280;47125;48.542;9.052;2023-03-20T03:31:42;96291.50;;;10.01;76.89
22582;BME280;47125;48.542;9.052;2023-03-20T03:41:47;96297.06;;;10.17;75.82
22582;BME280;47125;48.542;9.052;2023-03-20T03:51:52;96308.69;;;10.05;76.94
22582;BME280;47125;48.542;9.052;2023-03-20T04:01:58;96305.00;;;10.06;77.42
22582;BME280;47125;48.542;9.052;2023-03-20T04:12:09;96315.97;;;9.97;78.05
22582;BME280;47125;48.542;9.052;2023-03-20T04:22:21;96318.34;;;10.06;77.51
22582;BME280;47125;48.542;9.052;2023-03-20T04:32:23;96315.16;;;10.15;77.35
22582;BME280;47125;48.542;9.052;2023-03-20T04:42:28;96299.16;;;10.15;76.19
22582;BME280;47125;48.542;9.052;2023-03-20T04:52:30;96301.28;;;10.07;76.19
22582;BME280;47125;48.542;9.052;2023-03-20T05:02:34;96298.84;;;10.05;76.03
22582;BME280;47125;48.542;9.052;2023-03-20T05:12:37;96316.78;;;9.98;76.01
22582;BME280;47125;48.542;9.052;2023-03-20T05:22:40;96333.16;;;10.02;76.05
22582;BME280;47125;48.542;9.052;2023-03-20T05:32:43;96332.75;;;9.86;76.97
22582;BME280;47125;48.542;9.052;2023-03-20T05:42:48;96327.97;;;9.88;76.83
22582;BME280;47125;48.542;9.052;2023-03-20T05:52:51;96337.09;;;9.99;76.80
22582;BME280;47125;48.542;9.052;2023-03-20T06:02:55;96355.84;;;9.92;77.06
22582;BME280;47125;48.542;9.052;2023-03-20T06:12:58;96361.41;;;10.09;76.59
22582;BME280;47125;48.542;9.052;2023-03-20T06:23:06;96374.66;;;10.16;76.69
22582;BME280;47125;48.542;9.052;2023-03-20T06:33:09;96367.94;;;10.13;76.82
22582;BME280;47125;48.542;9.052;2023-03-20T06:43:13;96366.28;;;10.12;76.90
22582;BME280;47125;48.542;9.052;2023-03-20T06:53:21;96353.47;;;10.21;76.83
22582;BME280;47125;48.542;9.052;2023-03-20T07:03:25;96356.16;;;10.21;76.69
22582;BME280;47125;48.542;9.052;2023-03-20T07:13:28;96365.97;;;10.38;75.72
22582;BME280;47125;48.542;9.052;2023-03-20T07:23:32;96386.91;;;10.53;74.37
22582;BME280;47125;48.542;9.052;2023-03-20T07:33:35;96402.13;;;10.52;75.02
22582;BME280;47125;48.542;9.052;2023-03-20T07:43:39;96397.81;;;10.51;75.13
22582;BME280;47125;48.542;9.052;2023-03-20T07:53:44;96393.94;;;10.77;74.65
22582;BME280;47125;48.542;9.052;2023-03-20T08:03:48;96397.28;;;10.73;74.76
22582;BME280;47125;48.542;9.052;2023-03-20T08:13:51;96405.56;;;10.71;73.25
22582;BME280;47125;48.542;9.052;2023-03-20T08:23:55;96396.06;;;10.75;72.79
22582;BME280;47125;48.542;9.052;2023-03-20T08:33:57;96394.16;;;10.76;71.48
22582;BME280;47125;48.542;9.052;2023-03-20T08:44:01;96415.84;;;10.97;71.31
22582;BME280;47125;48.542;9.052;2023-03-20T08:54:04;96408.44;;;11.11;69.66
22582;BME280;47125;48.542;9.052;2023-03-20T09:04:08;96412.16;;;11.10;69.76
22582;BME280;47125;48.542;9.052;2023-03-20T09:14:11;96407.88;;;11.67;68.86
22582;BME280;47125;48.542;9.052;2023-03-20T09:24:14;96414.16;;;11.84;66.90
22582;BME280;47125;48.542;9.052;2023-03-20T09:34:17;96423.34;;;12.00;65.46
22582;BME280;47125;48.542;9.052;2023-03-20T09:44:23;96423.78;;;12.08;64.92
22582;BME280;47125;48.542;9.052;2023-03-20T09:54:35;96416.16;;;11.89;64.23
22582;BME280;47125;48.542;9.052;2023-03-20T10:04:55;96412.06;;;11.98;61.54
22582;BME280;47125;48.542;9.052;2023-03-20T10:14:59;96425.34;;;12.04;62.13
22582;BME280;47125;48.542;9.052;2023-03-20T10:25:06;96424.06;;;11.95;61.84
22582;BME280;47125;48.542;9.052;2023-03-20T10:35:12;96426.13;;;12.05;60.40
22582;BME280;47125;48.542;9.052;2023-03-20T10:45:21;96429.75;;;11.87;58.90
22582;BME280;47125;48.542;9.052;2023-03-20T10:55:30;96414.31;;;12.29;57.56
22582;BME280;47125;48.542;9.052;2023-03-20T11:05:35;96409.28;;;12.89;56.29
22582;BME280;47125;48.542;9.052;2023-03-20T11:15:38;96401.34;;;12.94;54.77
22582;BME280;47125;48.542;9.052;2023-03-20T11:25:47;96411.63;;;13.14;53.87
22582;BME280;47125;48.542;9.052;2023-03-20T11:35:51;96400.75;;;13.37;53.77
22582;BME280;47125;48.542;9.052;2023-03-20T11:45:55;96395.44;;;13.97;52.01
22582;BME280;47125;48.542;9.052;2023-03-20T11:56:03;96392.34;;;14.27;51.33
22582;BME280;47125;48.542;9.052;2023-03-20T12:06:13;96391.34;;;14.55;50.39
22582;BME280;47125;48.542;9.052;2023-03-20T12:16:16;96390.47;;;14.06;51.88
22582;BME280;47125;48.542;9.052;2023-03-20T12:26:23;96376.97;;;14.22;51.75
22582;BME280;47125;48.542;9.052;2023-03-20T12:36:29;96370.84;;;13.84;51.91
22582;BME280;47125;48.542;9.052;2023-03-20T12:46:35;96369.09;;;13.72;52.27
22582;BME280;47125;48.542;9.052;2023-03-20T12:56:48;96366.34;;;13.51;50.50
22582;BME280;47125;48.542;9.052;2023-03-20T13:06:57;96353.88;;;13.61;51.60
22582;BME280;47125;48.542;9.052;2023-03-20T13:17:02;96348.56;;;13.45;52.49
22582;BME280;47125;48.542;9.052;2023-03-20T13:27:12;96349.53;;;13.22;52.96
22582;BME280;47125;48.542;9.052;2023-03-20T13:37:18;96333.63;;;13.15;53.13
22582;BME280;47125;48.542;9.052;2023-03-20T13:47:26;96324.97;;;13.47;52.32
22582;BME280;47125;48.542;9.052;2023-03-20T13:57:42;96316.56;;;14.25;50.96
22582;BME280;47125;48.542;9.052;2023-03-20T14:07:50;96317.13;;;15.12;47.54
22582;BME280;47125;48.542;9.052;2023-03-20T14:17:56;96299.72;;;14.88;47.55
22582;BME280;47125;48.542;9.052;2023-03-20T14:28:06;96300.44;;;14.47;47.91
22582;BME280;47125;48.542;9.052;2023-03-20T14:38:14;96304.25;;;14.29;48.75
22582;BME280;47125;48.542;9.052;2023-03-20T14:48:25;96299.03;;;13.96;49.80
22582;BME280;47125;48.542;9.052;2023-03-20T14:58:34;96305.66;;;13.88;50.52
22582;BME280;47125;48.542;9.052;2023-03-20T15:08:42;96302.22;;;13.71;50.67
22582;BME280;47125;48.542;9.052;2023-03-20T15:18:49;96310.41;;;13.81;51.15
22582;BME280;47125;48.542;9.052;2023-03-20T15:28:55;96302.72;;;13.30;51.30
22582;BME280;47125;48.542;9.052;2023-03-20T15:39:01;96296.22;;;13.25;51.83
22582;BME280;47125;48.542;9.052;2023-03-20T15:49:06;96291.75;;;13.31;52.42
22582;BME280;47125;48.542;9.052;2023-03-20T15:59:09;96300.88;;;13.30;51.68
22582;BME280;47125;48.542;9.052;2023-03-20T16:09:15;96291.69;;;13.26;51.36
22582;BME280;47125;48.542;9.052;2023-03-20T16:19:18;96283.25;;;13.17;51.81
22582;BME280;47125;48.542;9.052;2023-03-20T16:29:23;96280.56;;;13.17;52.31
22582;BME280;47125;48.542;9.052;2023-03-20T16:39:27;96272.34;;;13.24;52.74
22582;BME280;47125;48.542;9.052;2023-03-20T16:59:52;96280.94;;;12.93;53.21
22582;BME280;47125;48.542;9.052;2023-03-20T17:09:58;96283.91;;;12.91;53.44
22582;BME280;47125;48.542;9.052;2023-03-20T17:20:02;96284.94;;;12.90;53.84
22582;BME280;47125;48.542;9.052;2023-03-20T17:30:05;96274.28;;;12.95;53.67
22582;BME280;47125;48.542;9.052;2023-03-20T17:40:15;96282.34;;;12.79;54.32
22582;BME280;47125;48.542;9.052;2023-03-20T17:50:19;96278.03;;;12.61;54.37
22582;BME280;47125;48.542;9.052;2023-03-20T18:00:25;96290.28;;;12.40;55.04
22582;BME280;47125;48.542;9.052;2023-03-20T18:10:29;96302.66;;;12.30;55.53
22582;BME280;47125;48.542;9.052;2023-03-20T18:31:39;96320.97;;;12.21;56.31
22582;BME280;47125;48.542;9.052;2023-03-20T18:41:44;96320.28;;;12.26;56.38
22582;BME280;47125;48.542;9.052;2023-03-20T18:51:48;96320.97;;;12.21;57.16
22582;BME280;47125;48.542;9.052;2023-03-20T19:01:50;96322.66;;;12.10;57.73
22582;BME280;47125;48.542;9.052;2023-03-20T19:11:54;96329.75;;;12.17;57.70
22582;BME280;47125;48.542;9.052;2023-03-20T19:21:57;96320.94;;;12.04;58.17
22582;BME280;47125;48.542;9.052;2023-03-20T19:32:01;96305.81;;;11.98;58.31
22582;BME280;47125;48.542;9.052;2023-03-20T19:42:03;96304.00;;;11.76;59.65
22582;BME280;47125;48.542;9.052;2023-03-20T19:52:29;96308.84;;;11.90;59.18
22582;BME280;47125;48.542;9.052;2023-03-20T20:02:32;96302.97;;;11.65;60.07
22582;BME280;47125;48.542;9.052;2023-03-20T20:12:36;96300.91;;;11.55;60.72
22582;BME280;47125;48.542;9.052;2023-03-20T20:22:39;96287.41;;;11.74;59.73
22582;BME280;47125;48.542;9.052;2023-03-20T20:32:43;96282.69;;;11.81;59.66
22582;BME280;47125;48.542;9.052;2023-03-20T20:42:47;96282.88;;;11.74;59.79
22582;BME280;47125;48.542;9.052;2023-03-20T20:52:53;96289.13;;;11.68;60.07
22582;BME280;47125;48.542;9.052;2023-03-20T21:02:56;96310.31;;;11.58;60.86
22582;BME280;47125;48.542;9.052;2023-03-20T21:13:01;96314.50;;;11.42;61.60
22582;BME280;47125;48.542;9.052;2023-03-20T21:23:04;96312.66;;;11.43;61.83
22582;BME280;47125;48.542;9.052;2023-03-20T21:33:08;96309.16;;;11.42;62.01
22582;BME280;47125;48.542;9.052;2023-03-20T21:43:11;96308.50;;;11.35;62.30
22582;BME280;47125;48.542;9.052;2023-03-20T21:53:15;96307.31;;;11.31;62.39
22582;BME280;47125;48.542;9.052;2023-03-20T22:03:37;96297.09;;;11.28;62.31
22582;BME280;47125;48.542;9.052;2023-03-20T22:14:02;96294.56;;;10.98;63.58
22582;BME280;47125;48.542;9.052;2023-03-20T22:24:24;96294.75;;;10.85;64.90
22582;BME280;47125;48.542;9.052;2023-03-20T22:34:50;96290.94;;;10.81;64.66
22582;BME280;47125;48.542;9.052;2023-03-20T22:45:12;96282.69;;;10.71;64.98
22582;BME280;47125;48.542;9.052;2023-03-20T22:55:17;96280.59;;;10.73;64.85
22582;BME280;47125;48.542;9.052;2023-03-20T23:05:19;96279.34;;;10.99;63.71
22582;BME280;47125;48.542;9.052;2023-03-20T23:15:23;96268.16;;;10.79;64.90
22582;BME280;47125;48.542;9.052;2023-03-20T23:25:29;96271.63;;;10.68;64.39
22582;BME280;47125;48.542;9.052;2023-03-20T23:35:41;96256.91;;;10.88;63.99
22582;BME280;47125;48.542;9.052;2023-03-20T23:45:44;96247.25;;;10.76;64.38
22582;BME280;47125;48.542;9.052;2023-03-20T23:55:49;96239.94;;;10.94;63.27
